Aviation Digital Data Service (ADDS)

Output produced by METARs form (0012 UTC 28 November 2014)
found at http://aviationweather.gov/adds/metars/
 
KMPV 272325Z 2800/2824 34004KT P6SM OVC018 
     FM280200 00000KT P6SM BKN020 OVC035 
     FM280700 VRB03KT 5SM -SHSN BR OVC025 
     FM281300 31006KT P6SM BKN025 BKN040 
     FM281700 31006KT P6SM BKN040